sensor_id;sensor_type;location;lat;lon;timestamp;pressure;altitude;pressure_sealevel;temperature;humidity
17635;BME280;8936;49.010;12.120;2023-02-19T00:00:02;98301.84;;;10.67;100.00
17635;BME280;8936;49.010;12.120;2023-02-19T00:02:29;98303.38;;;10.58;100.00
17635;BME280;8936;49.010;12.120;2023-02-19T00:04:55;98299.69;;;10.64;100.00
17635;BME280;8936;49.010;12.120;2023-02-19T00:07:21;98304.75;;;10.65;100.00
17635;BME280;8936;49.010;12.120;2023-02-19T00:09:48;98298.09;;;10.68;100.00
17635;BME280;8936;49.010;12.120;2023-02-19T00:12:14;98294.59;;;10.62;100.00
17635;BME280;8936;49.010;12.120;2023-02-19T00:14:42;98293.03;;;10.66;100.00
17635;BME280;8936;49.010;12.120;2023-02-19T00:17:08;98295.16;;;10.64;100.00
17635;BME280;8936;49.010;12.120;2023-02-19T00:19:34;98297.97;;;10.53;100.00
17635;BME280;8936;49.010;12.120;2023-02-19T00:22:01;98289.75;;;10.59;100.00
17635;BME280;8936;49.010;12.120;2023-02-19T00:24:28;98290.00;;;10.58;100.00
17635;BME280;8936;49.010;12.120;2023-02-19T00:26:55;98292.41;;;10.59;100.00
17635;BME280;8936;49.010;12.120;2023-02-19T00:29:21;98291.91;;;10.62;100.00
17635;BME280;8936;49.010;12.120;2023-02-19T00:31:50;98295.66;;;10.61;100.00
17635;BME280;8936;49.010;12.120;2023-02-19T00:34:16;98290.59;;;10.65;100.00
17635;BME280;8936;49.010;12.120;2023-02-19T00:36:43;98290.88;;;10.63;100.00
17635;BME280;8936;49.010;12.120;2023-02-19T00:39:10;98288.69;;;10.60;100.00
17635;BME280;8936;49.010;12.120;2023-02-19T00:41:38;98293.97;;;10.55;100.00
17635;BME280;8936;49.010;12.120;2023-02-19T00:44:05;98291.91;;;10.62;100.00
17635;BME280;8936;49.010;12.120;2023-02-19T00:46:33;98290.56;;;10.60;100.00
17635;BME280;8936;49.010;12.120;2023-02-19T00:49:01;98287.38;;;10.63;100.00
17635;BME280;8936;49.010;12.120;2023-02-19T00:51:29;98282.31;;;10.61;100.00
17635;BME280;8936;49.010;12.120;2023-02-19T00:53:56;98293.56;;;10.68;100.00
17635;BME280;8936;49.010;12.120;2023-02-19T00:56:22;98283.97;;;10.67;100.00
17635;BME280;8936;49.010;12.120;2023-02-19T00:58:49;98280.19;;;10.63;100.00
17635;BME280;8936;49.010;12.120;2023-02-19T01:01:15;98275.13;;;10.67;100.00
17635;BME280;8936;49.010;12.120;2023-02-19T01:03:42;98282.94;;;10.73;100.00
17635;BME280;8936;49.010;12.120;2023-02-19T01:06:10;98272.97;;;10.64;100.00
17635;BME280;8936;49.010;12.120;2023-02-19T01:08:36;98277.50;;;10.63;100.00
17635;BME280;8936;49.010;12.120;2023-02-19T01:11:03;98270.59;;;10.67;100.00
17635;BME280;8936;49.010;12.120;2023-02-19T01:13:29;98264.13;;;10.58;100.00
17635;BME280;8936;49.010;12.120;2023-02-19T01:16:01;98268.38;;;10.59;100.00
17635;BME280;8936;49.010;12.120;2023-02-19T01:18:27;98263.44;;;10.73;100.00
17635;BME280;8936;49.010;12.120;2023-02-19T01:20:53;98270.13;;;10.75;100.00
17635;BME280;8936;49.010;12.120;2023-02-19T01:23:21;98269.06;;;10.76;100.00
17635;BME280;8936;49.010;12.120;2023-02-19T01:25:47;98261.84;;;10.77;100.00
17635;BME280;8936;49.010;12.120;2023-02-19T01:28:14;98258.31;;;10.66;100.00
17635;BME280;8936;49.010;12.120;2023-02-19T01:30:40;98255.41;;;10.73;100.00
17635;BME280;8936;49.010;12.120;2023-02-19T01:33:07;98247.91;;;10.70;100.00
17635;BME280;8936;49.010;12.120;2023-02-19T01:35:36;98243.91;;;10.72;100.00
17635;BME280;8936;49.010;12.120;2023-02-19T01:38:03;98243.53;;;10.59;100.00
17635;BME280;8936;49.010;12.120;2023-02-19T01:40:32;98232.00;;;10.53;100.00
17635;BME280;8936;49.010;12.120;2023-02-19T01:42:59;98232.09;;;10.63;100.00
17635;BME280;8936;49.010;12.120;2023-02-19T01:45:27;98224.31;;;10.57;100.00
17635;BME280;8936;49.010;12.120;2023-02-19T01:48:05;98218.41;;;10.55;100.00
17635;BME280;8936;49.010;12.120;2023-02-19T01:50:34;98219.47;;;10.54;100.00
17635;BME280;8936;49.010;12.120;2023-02-19T01:53:02;98218.94;;;10.52;100.00
17635;BME280;8936;49.010;12.120;2023-02-19T01:55:32;98212.50;;;10.53;100.00
17635;BME280;8936;49.010;12.120;2023-02-19T01:57:59;98213.72;;;10.40;100.00
17635;BME280;8936;49.010;12.120;2023-02-19T02:00:27;98205.22;;;10.43;100.00
17635;BME280;8936;49.010;12.120;2023-02-19T02:02:53;98208.69;;;10.44;100.00
17635;BME280;8936;49.010;12.120;2023-02-19T02:05:23;98197.72;;;10.40;100.00
17635;BME280;8936;49.010;12.120;2023-02-19T02:07:52;98193.00;;;10.52;100.00
17635;BME280;8936;49.010;12.120;2023-02-19T02:10:38;98188.19;;;10.49;100.00
17635;BME280;8936;49.010;12.120;2023-02-19T02:13:04;98184.00;;;10.58;100.00
17635;BME280;8936;49.010;12.120;2023-02-19T02:15:34;98170.16;;;10.66;100.00
17635;BME280;8936;49.010;12.120;2023-02-19T02:18:04;98174.66;;;10.61;100.00
17635;BME280;8936;49.010;12.120;2023-02-19T02:20:35;98168.25;;;10.62;100.00
17635;BME280;8936;49.010;12.120;2023-02-19T02:23:07;98163.69;;;10.57;100.00
17635;BME280;8936;49.010;12.120;2023-02-19T02:28:21;98170.16;;;10.66;100.00
17635;BME280;8936;49.010;12.120;2023-02-19T02:30:51;98152.72;;;10.59;100.00
17635;BME280;8936;49.010;12.120;2023-02-19T02:33:20;98150.84;;;10.54;100.00
17635;BME280;8936;49.010;12.120;2023-02-19T02:35:53;98139.56;;;10.47;100.00
17635;BME280;8936;49.010;12.120;2023-02-19T02:38:22;98137.19;;;10.51;100.00
17635;BME280;8936;49.010;12.120;2023-02-19T02:40:49;98132.09;;;10.49;100.00
17635;BME280;8936;49.010;12.120;2023-02-19T02:43:16;98125.72;;;10.55;100.00
17635;BME280;8936;49.010;12.120;2023-02-19T02:45:42;98132.19;;;10.59;100.00
17635;BME280;8936;49.010;12.120;2023-02-19T02:48:12;98121.53;;;10.64;100.00
17635;BME280;8936;49.010;12.120;2023-02-19T02:50:40;98133.78;;;10.60;100.00
17635;BME280;8936;49.010;12.120;2023-02-19T02:53:08;98123.13;;;10.60;100.00
17635;BME280;8936;49.010;12.120;2023-02-19T02:55:54;98122.31;;;10.60;100.00
17635;BME280;8936;49.010;12.120;2023-02-19T02:58:21;98132.75;;;10.61;100.00
17635;BME280;8936;49.010;12.120;2023-02-19T03:00:50;98116.19;;;10.64;100.00
17635;BME280;8936;49.010;12.120;2023-02-19T03:03:38;98105.19;;;10.56;100.00
17635;BME280;8936;49.010;12.120;2023-02-19T03:06:07;98105.75;;;10.58;100.00
17635;BME280;8936;49.010;12.120;2023-02-19T03:08:37;98094.78;;;10.54;100.00
17635;BME280;8936;49.010;12.120;2023-02-19T03:11:06;98091.59;;;10.57;100.00
17635;BME280;8936;49.010;12.120;2023-02-19T03:13:52;98093.19;;;10.58;100.00
17635;BME280;8936;49.010;12.120;2023-02-19T03:16:37;98100.41;;;10.58;100.00
17635;BME280;8936;49.010;12.120;2023-02-19T03:19:25;98104.38;;;10.55;100.00
17635;BME280;8936;49.010;12.120;2023-02-19T03:21:53;98111.53;;;10.45;100.00
17635;BME280;8936;49.010;12.120;2023-02-19T03:24:21;98106.72;;;10.47;100.00
17635;BME280;8936;49.010;12.120;2023-02-19T03:27:06;98109.91;;;10.44;100.00
17635;BME280;8936;49.010;12.120;2023-02-19T03:29:34;98091.19;;;10.39;100.00
17635;BME280;8936;49.010;12.120;2023-02-19T03:32:02;98095.22;;;10.41;100.00
17635;BME280;8936;49.010;12.120;2023-02-19T03:34:33;98090.91;;;10.40;100.00
17635;BME280;8936;49.010;12.120;2023-02-19T03:37:01;98090.41;;;10.43;100.00
17635;BME280;8936;49.010;12.120;2023-02-19T03:39:31;98090.69;;;10.42;100.00
17635;BME280;8936;49.010;12.120;2023-02-19T03:42:10;98091.44;;;10.37;100.00
17635;BME280;8936;49.010;12.120;2023-02-19T03:44:39;98097.34;;;10.39;100.00
17635;BME280;8936;49.010;12.120;2023-02-19T03:47:08;98099.44;;;10.37;100.00
17635;BME280;8936;49.010;12.120;2023-02-19T03:49:40;98101.66;;;10.45;100.00
17635;BME280;8936;49.010;12.120;2023-02-19T03:52:10;98100.56;;;10.46;100.00
17635;BME280;8936;49.010;12.120;2023-02-19T03:54:41;98095.75;;;10.43;100.00
17635;BME280;8936;49.010;12.120;2023-02-19T03:57:11;98095.00;;;10.48;100.00
17635;BME280;8936;49.010;12.120;2023-02-19T03:59:39;98092.56;;;10.46;100.00
17635;BME280;8936;49.010;12.120;2023-02-19T04:02:08;98088.31;;;10.45;100.00
17635;BME280;8936;49.010;12.120;2023-02-19T04:04:37;98079.19;;;10.41;100.00
17635;BME280;8936;49.010;12.120;2023-02-19T04:07:07;98085.34;;;10.42;100.00
17635;BME280;8936;49.010;12.120;2023-02-19T04:09:34;98083.47;;;10.42;100.00
17635;BME280;8936;49.010;12.120;2023-02-19T04:12:02;98071.59;;;10.23;100.00
17635;BME280;8936;49.010;12.120;2023-02-19T04:14:30;98077.75;;;10.23;100.00
17635;BME280;8936;49.010;12.120;2023-02-19T04:17:00;98074.28;;;10.28;100.00
17635;BME280;8936;49.010;12.120;2023-02-19T04:19:28;98064.72;;;10.32;100.00
17635;BME280;8936;49.010;12.120;2023-02-19T04:21:56;98073.84;;;10.36;100.00
17635;BME280;8936;49.010;12.120;2023-02-19T04:24:25;98061.84;;;10.39;100.00
17635;BME280;8936;49.010;12.120;2023-02-19T04:26:53;98062.63;;;10.39;100.00
17635;BME280;8936;49.010;12.120;2023-02-19T04:29:20;98064.22;;;10.35;100.00
17635;BME280;8936;49.010;12.120;2023-02-19T04:31:46;98079.09;;;10.26;100.00
17635;BME280;8936;49.010;12.120;2023-02-19T04:34:12;98079.13;;;10.31;100.00
17635;BME280;8936;49.010;12.120;2023-02-19T04:36:39;98082.88;;;10.35;100.00
17635;BME280;8936;49.010;12.120;2023-02-19T04:39:05;98077.56;;;10.40;100.00
17635;BME280;8936;49.010;12.120;2023-02-19T04:41:33;98079.63;;;10.28;100.00
17635;BME280;8936;49.010;12.120;2023-02-19T04:43:59;98087.63;;;10.28;100.00
17635;BME280;8936;49.010;12.120;2023-02-19T04:46:26;98087.13;;;10.31;100.00
17635;BME280;8936;49.010;12.120;2023-02-19T04:48:52;98087.19;;;10.36;100.00
17635;BME280;8936;49.010;12.120;2023-02-19T04:51:18;98101.06;;;10.38;100.00
17635;BME280;8936;49.010;12.120;2023-02-19T04:53:45;98083.41;;;10.32;100.00
17635;BME280;8936;49.010;12.120;2023-02-19T04:56:12;98090.59;;;10.26;100.00
17635;BME280;8936;49.010;12.120;2023-02-19T04:58:40;98096.00;;;10.37;100.00
17635;BME280;8936;49.010;12.120;2023-02-19T05:01:07;98090.78;;;10.20;100.00
17635;BME280;8936;49.010;12.120;2023-02-19T05:03:34;98090.31;;;10.28;100.00
17635;BME280;8936;49.010;12.120;2023-02-19T05:06:01;98084.94;;;10.18;100.00
17635;BME280;8936;49.010;12.120;2023-02-19T05:08:27;98090.28;;;10.23;100.00
17635;BME280;8936;49.010;12.120;2023-02-19T05:10:55;98092.69;;;10.24;100.00
17635;BME280;8936;49.010;12.120;2023-02-19T05:13:22;98105.19;;;10.19;100.00
17635;BME280;8936;49.010;12.120;2023-02-19T05:15:56;98103.09;;;10.21;100.00
17635;BME280;8936;49.010;12.120;2023-02-19T05:18:23;98090.59;;;10.26;100.00
17635;BME280;8936;49.010;12.120;2023-02-19T05:20:49;98095.91;;;10.26;100.00
17635;BME280;8936;49.010;12.120;2023-02-19T05:23:16;98100.38;;;10.16;100.00
17635;BME280;8936;49.010;12.120;2023-02-19T05:25:42;98101.63;;;10.08;100.00
17635;BME280;8936;49.010;12.120;2023-02-19T05:28:09;98104.13;;;10.15;100.00
17635;BME280;8936;49.010;12.120;2023-02-19T05:30:45;98108.13;;;10.17;100.00
17635;BME280;8936;49.010;12.120;2023-02-19T05:33:13;98117.69;;;10.13;100.00
17635;BME280;8936;49.010;12.120;2023-02-19T05:35:40;98123.34;;;10.17;100.00
17635;BME280;8936;49.010;12.120;2023-02-19T05:38:06;98120.81;;;10.05;100.00
17635;BME280;8936;49.010;12.120;2023-02-19T05:40:33;98108.56;;;10.09;100.00
17635;BME280;8936;49.010;12.120;2023-02-19T05:42:59;98106.06;;;9.98;100.00
17635;BME280;8936;49.010;12.120;2023-02-19T05:45:26;98118.91;;;10.01;100.00
17635;BME280;8936;49.010;12.120;2023-02-19T05:47:52;98110.34;;;9.99;100.00
17635;BME280;8936;49.010;12.120;2023-02-19T05:50:20;98113.25;;;9.97;100.00
17635;BME280;8936;49.010;12.120;2023-02-19T05:52:46;98118.56;;;9.92;100.00
17635;BME280;8936;49.010;12.120;2023-02-19T05:55:12;98122.59;;;10.00;100.00
17635;BME280;8936;49.010;12.120;2023-02-19T05:57:39;98116.19;;;9.96;100.00
17635;BME280;8936;49.010;12.120;2023-02-19T06:00:06;98121.06;;;10.04;100.00
17635;BME280;8936;49.010;12.120;2023-02-19T06:02:33;98116.75;;;10.03;100.00
17635;BME280;8936;49.010;12.120;2023-02-19T06:04:59;98127.44;;;10.03;100.00
17635;BME280;8936;49.010;12.120;2023-02-19T06:07:27;98127.94;;;10.00;100.00
17635;BME280;8936;49.010;12.120;2023-02-19T06:09:53;98123.72;;;10.04;100.00
17635;BME280;8936;49.010;12.120;2023-02-19T06:12:20;98114.19;;;10.13;100.00
17635;BME280;8936;49.010;12.120;2023-02-19T06:14:47;98131.22;;;10.07;100.00
17635;BME280;8936;49.010;12.120;2023-02-19T06:17:13;98135.22;;;10.04;100.00
17635;BME280;8936;49.010;12.120;2023-02-19T06:19:40;98135.72;;;10.01;100.00
17635;BME280;8936;49.010;12.120;2023-02-19T06:22:06;98137.25;;;9.97;100.00
17635;BME280;8936;49.010;12.120;2023-02-19T06:24:34;98137.56;;;10.01;100.00
17635;BME280;8936;49.010;12.120;2023-02-19T06:27:03;98139.41;;;9.95;100.00
17635;BME280;8936;49.010;12.120;2023-02-19T06:29:30;98138.03;;;9.93;100.00
17635;BME280;8936;49.010;12.120;2023-02-19T06:31:56;98148.72;;;9.93;100.00
17635;BME280;8936;49.010;12.120;2023-02-19T06:34:22;98167.94;;;9.95;100.00
17635;BME280;8936;49.010;12.120;2023-02-19T06:36:49;98172.72;;;9.93;100.00
17635;BME280;8936;49.010;12.120;2023-02-19T06:39:15;98157.25;;;9.95;100.00
17635;BME280;8936;49.010;12.120;2023-02-19T06:41:43;98160.41;;;9.87;100.00
17635;BME280;8936;49.010;12.120;2023-02-19T06:44:09;98162.59;;;9.95;100.00
17635;BME280;8936;49.010;12.120;2023-02-19T06:46:36;98171.66;;;9.94;100.00
17635;BME280;8936;49.010;12.120;2023-02-19T06:49:02;98171.22;;;10.02;100.00
17635;BME280;8936;49.010;12.120;2023-02-19T06:51:29;98188.78;;;9.98;100.00
17635;BME280;8936;49.010;12.120;2023-02-19T06:53:56;98194.59;;;9.95;100.00
17635;BME280;8936;49.010;12.120;2023-02-19T06:56:24;98189.28;;;9.95;100.00
17635;BME280;8936;49.010;12.120;2023-02-19T06:58:52;98202.66;;;10.00;100.00
17635;BME280;8936;49.010;12.120;2023-02-19T07:01:19;98204.16;;;9.91;100.00
17635;BME280;8936;49.010;12.120;2023-02-19T07:03:46;98203.66;;;9.94;100.00
17635;BME280;8936;49.010;12.120;2023-02-19T07:06:12;98212.66;;;9.88;100.00
17635;BME280;8936;49.010;12.120;2023-02-19T07:08:38;98215.63;;;9.91;100.00
17635;BME280;8936;49.010;12.120;2023-02-19T07:11:05;98219.75;;;9.99;100.00
17635;BME280;8936;49.010;12.120;2023-02-19T07:13:31;98208.56;;;10.02;100.00
17635;BME280;8936;49.010;12.120;2023-02-19T07:15:59;98223.94;;;9.95;100.00
17635;BME280;8936;49.010;12.120;2023-02-19T07:18:26;98228.56;;;9.99;100.00
17635;BME280;8936;49.010;12.120;2023-02-19T07:20:52;98224.00;;;10.00;100.00
17635;BME280;8936;49.010;12.120;2023-02-19T07:23:18;98214.34;;;9.94;100.00
17635;BME280;8936;49.010;12.120;2023-02-19T07:25:47;98213.78;;;9.92;100.00
17635;BME280;8936;49.010;12.120;2023-02-19T07:28:13;98202.44;;;9.80;100.00
17635;BME280;8936;49.010;12.120;2023-02-19T07:30:40;98206.25;;;9.84;100.00
17635;BME280;8936;49.010;12.120;2023-02-19T07:33:08;98217.50;;;9.91;100.00
17635;BME280;8936;49.010;12.120;2023-02-19T07:35:35;98212.66;;;9.88;100.00
17635;BME280;8936;49.010;12.120;2023-02-19T07:38:01;98215.28;;;9.83;100.00
17635;BME280;8936;49.010;12.120;2023-02-19T07:40:28;98237.25;;;9.90;100.00
17635;BME280;8936;49.010;12.120;2023-02-19T07:42:54;98235.63;;;9.89;100.00
17635;BME280;8936;49.010;12.120;2023-02-19T07:45:20;98235.97;;;9.70;100.00
17635;BME280;8936;49.010;12.120;2023-02-19T07:47:46;98242.50;;;9.85;100.00
17635;BME280;8936;49.010;12.120;2023-02-19T07:50:14;98238.81;;;9.86;100.00
17635;BME280;8936;49.010;12.120;2023-02-19T07:52:41;98256.44;;;9.87;100.00
17635;BME280;8936;49.010;12.120;2023-02-19T07:55:07;98254.81;;;9.86;100.00
17635;BME280;8936;49.010;12.120;2023-02-19T07:57:33;98244.56;;;9.99;100.00
17635;BME280;8936;49.010;12.120;2023-02-19T08:00:00;98256.72;;;9.90;100.00
17635;BME280;8936;49.010;12.120;2023-02-19T08:02:26;98252.19;;;9.91;100.00
17635;BME280;8936;49.010;12.120;2023-02-19T08:05:10;98261.75;;;9.87;100.00
17635;BME280;8936;49.010;12.120;2023-02-19T08:07:38;98259.94;;;9.92;100.00
17635;BME280;8936;49.010;12.120;2023-02-19T08:10:05;98256.16;;;9.88;100.00
17635;BME280;8936;49.010;12.120;2023-02-19T08:12:55;98255.97;;;9.95;100.00
17635;BME280;8936;49.010;12.120;2023-02-19T08:15:39;98252.19;;;9.91;100.00
17635;BME280;8936;49.010;12.120;2023-02-19T08:18:06;98258.94;;;9.98;100.00
17635;BME280;8936;49.010;12.120;2023-02-19T08:20:32;98257.00;;;9.94;100.00
17635;BME280;8936;49.010;12.120;2023-02-19T08:23:00;98255.13;;;9.89;100.00
17635;BME280;8936;49.010;12.120;2023-02-19T08:25:27;98266.69;;;10.00;100.00
17635;BME280;8936;49.010;12.120;2023-02-19T08:27:53;98270.97;;;10.01;100.00
17635;BME280;8936;49.010;12.120;2023-02-19T08:30:20;98277.66;;;10.03;100.00
17635;BME280;8936;49.010;12.120;2023-02-19T08:32:46;98276.81;;;9.98;100.00
17635;BME280;8936;49.010;12.120;2023-02-19T08:35:12;98287.34;;;10.09;100.00
17635;BME280;8936;49.010;12.120;2023-02-19T08:37:39;98281.53;;;9.91;100.00
17635;BME280;8936;49.010;12.120;2023-02-19T08:40:07;98289.47;;;10.07;100.00
17635;BME280;8936;49.010;12.120;2023-02-19T08:42:33;98290.19;;;10.03;100.00
17635;BME280;8936;49.010;12.120;2023-02-19T08:45:00;98291.09;;;10.08;100.00
17635;BME280;8936;49.010;12.120;2023-02-19T08:47:26;98287.00;;;10.01;100.00
17635;BME280;8936;49.010;12.120;2023-02-19T08:49:52;98289.66;;;10.01;100.00
17635;BME280;8936;49.010;12.120;2023-02-19T08:52:19;98290.28;;;10.08;100.00
17635;BME280;8936;49.010;12.120;2023-02-19T08:54:45;98282.09;;;9.93;100.00
17635;BME280;8936;49.010;12.120;2023-02-19T08:57:13;98295.81;;;10.01;100.00
17635;BME280;8936;49.010;12.120;2023-02-19T08:59:39;98292.88;;;10.03;100.00
17635;BME280;8936;49.010;12.120;2023-02-19T09:02:07;98300.69;;;10.09;100.00
17635;BME280;8936;49.010;12.120;2023-02-19T09:04:33;98298.47;;;10.01;100.00
17635;BME280;8936;49.010;12.120;2023-02-19T09:07:01;98288.66;;;10.07;100.00
17635;BME280;8936;49.010;12.120;2023-02-19T09:09:31;98300.63;;;10.04;100.00
17635;BME280;8936;49.010;12.120;2023-02-19T09:11:58;98296.00;;;9.95;100.00
17635;BME280;8936;49.010;12.120;2023-02-19T09:14:25;98296.03;;;10.00;100.00
17635;BME280;8936;49.010;12.120;2023-02-19T09:16:52;98306.34;;;9.91;100.00
17635;BME280;8936;49.010;12.120;2023-02-19T09:19:18;98309.97;;;10.02;100.00
17635;BME280;8936;49.010;12.120;2023-02-19T09:21:44;98307.03;;;10.03;100.00
17635;BME280;8936;49.010;12.120;2023-02-19T09:24:11;98306.22;;;10.03;100.00
17635;BME280;8936;49.010;12.120;2023-02-19T09:26:37;98314.84;;;10.10;100.00
17635;BME280;8936;49.010;12.120;2023-02-19T09:29:03;98310.75;;;10.02;100.00
17635;BME280;8936;49.010;12.120;2023-02-19T09:31:31;98312.66;;;10.07;100.00
17635;BME280;8936;49.010;12.120;2023-02-19T09:33:59;98308.19;;;10.12;100.00
17635;BME280;8936;49.010;12.120;2023-02-19T09:36:25;98306.78;;;10.05;100.00
17635;BME280;8936;49.010;12.120;2023-02-19T09:38:52;98323.50;;;10.17;100.00
17635;BME280;8936;49.010;12.120;2023-02-19T09:41:29;98318.00;;;10.07;100.00
17635;BME280;8936;49.010;12.120;2023-02-19T09:43:57;98326.28;;;10.05;100.00
17635;BME280;8936;49.010;12.120;2023-02-19T09:46:26;98322.81;;;10.05;100.00
17635;BME280;8936;49.010;12.120;2023-02-19T09:48:56;98320.69;;;10.07;100.00
17635;BME280;8936;49.010;12.120;2023-02-19T09:51:27;98333.28;;;10.11;100.00
17635;BME280;8936;49.010;12.120;2023-02-19T09:53:54;98338.97;;;10.15;100.00
17635;BME280;8936;49.010;12.120;2023-02-19T09:56:22;98334.31;;;10.10;100.00
17635;BME280;8936;49.010;12.120;2023-02-19T09:58:51;98337.50;;;10.07;100.00
17635;BME280;8936;49.010;12.120;2023-02-19T10:01:19;98341.41;;;10.00;100.00
17635;BME280;8936;49.010;12.120;2023-02-19T10:03:47;98350.03;;;10.07;100.00
17635;BME280;8936;49.010;12.120;2023-02-19T10:06:17;98352.84;;;10.17;100.00
17635;BME280;8936;49.010;12.120;2023-02-19T10:08:44;98359.88;;;10.23;100.00
17635;BME280;8936;49.010;12.120;2023-02-19T10:11:11;98365.16;;;10.18;100.00
17635;BME280;8936;49.010;12.120;2023-02-19T10:13:39;98366.44;;;10.15;100.00
17635;BME280;8936;49.010;12.120;2023-02-19T10:16:08;98374.44;;;10.15;100.00
17635;BME280;8936;49.010;12.120;2023-02-19T10:18:40;98370.00;;;10.21;100.00
17635;BME280;8936;49.010;12.120;2023-02-19T10:21:09;98371.66;;;10.27;100.00
17635;BME280;8936;49.010;12.120;2023-02-19T10:23:39;98373.06;;;10.13;100.00
17635;BME280;8936;49.010;12.120;2023-02-19T10:26:06;98378.00;;;10.21;100.00
17635;BME280;8936;49.010;12.120;2023-02-19T10:28:33;98370.53;;;10.23;100.00
17635;BME280;8936;49.010;12.120;2023-02-19T10:31:00;98370.28;;;10.24;100.00
17635;BME280;8936;49.010;12.120;2023-02-19T10:33:27;98372.41;;;10.22;100.00
17635;BME280;8936;49.010;12.120;2023-02-19T10:35:55;98367.56;;;10.19;100.00
17635;BME280;8936;49.010;12.120;2023-02-19T10:38:22;98373.53;;;10.26;100.00
17635;BME280;8936;49.010;12.120;2023-02-19T10:40:55;98368.88;;;10.17;100.00
17635;BME280;8936;49.010;12.120;2023-02-19T10:43:24;98374.22;;;10.17;100.00
17635;BME280;8936;49.010;12.120;2023-02-19T10:45:55;98373.53;;;10.26;100.00
17635;BME280;8936;49.010;12.120;2023-02-19T10:48:24;98380.19;;;10.24;100.00
17635;BME280;8936;49.010;12.120;2023-02-19T10:50:56;98383.56;;;10.19;100.00
17635;BME280;8936;49.010;12.120;2023-02-19T10:53:35;98375.53;;;10.14;100.00
17635;BME280;8936;49.010;12.120;2023-02-19T10:56:08;98387.28;;;10.18;100.00
17635;BME280;8936;49.010;12.120;2023-02-19T10:58:34;98386.69;;;10.33;100.00
17635;BME280;8936;49.010;12.120;2023-02-19T11:01:08;98381.91;;;10.35;100.00
17635;BME280;8936;49.010;12.120;2023-02-19T11:03:35;98372.34;;;10.39;100.00
17635;BME280;8936;49.010;12.120;2023-02-19T11:06:02;98384.41;;;10.47;100.00
17635;BME280;8936;49.010;12.120;2023-02-19T11:08:31;98385.72;;;10.44;100.00
17635;BME280;8936;49.010;12.120;2023-02-19T11:11:02;98394.56;;;10.45;100.00
17635;BME280;8936;49.010;12.120;2023-02-19T11:13:31;98388.91;;;10.41;100.00
17635;BME280;8936;49.010;12.120;2023-02-19T11:16:02;98399.03;;;10.39;100.00
17635;BME280;8936;49.010;12.120;2023-02-19T11:18:29;98386.00;;;10.43;100.00
17635;BME280;8936;49.010;12.120;2023-02-19T11:20:57;98384.06;;;10.38;100.00
17635;BME280;8936;49.010;12.120;2023-02-19T11:23:25;98380.34;;;10.39;100.00
17635;BME280;8936;49.010;12.120;2023-02-19T11:25:54;98390.56;;;10.47;100.00
17635;BME280;8936;49.010;12.120;2023-02-19T11:28:31;98379.06;;;10.47;100.00
17635;BME280;8936;49.010;12.120;2023-02-19T11:31:11;98378.56;;;10.50;100.00
17635;BME280;8936;49.010;12.120;2023-02-19T11:33:42;98381.06;;;10.56;100.00
17635;BME280;8936;49.010;12.120;2023-02-19T11:38:56;98378.22;;;10.41;100.00
17635;BME280;8936;49.010;12.120;2023-02-19T11:41:26;98373.69;;;10.42;100.00
17635;BME280;8936;49.010;12.120;2023-02-19T11:44:04;98392.50;;;10.52;100.00
17635;BME280;8936;49.010;12.120;2023-02-19T11:46:35;98375.50;;;10.36;100.00
17635;BME280;8936;49.010;12.120;2023-02-19T11:49:07;98375.06;;;10.44;100.00
17635;BME280;8936;49.010;12.120;2023-02-19T11:51:42;98373.44;;;10.43;100.00
17635;BME280;8936;49.010;12.120;2023-02-19T11:54:17;98377.25;;;10.52;100.00
17635;BME280;8936;49.010;12.120;2023-02-19T11:56:45;98375.66;;;10.51;100.00
17635;BME280;8936;49.010;12.120;2023-02-19T11:59:18;98375.16;;;10.54;100.00
17635;BME280;8936;49.010;12.120;2023-02-19T12:01:50;98387.41;;;10.50;100.00
17635;BME280;8936;49.010;12.120;2023-02-19T12:04:25;98381.41;;;10.38;100.00
17635;BME280;8936;49.010;12.120;2023-02-19T12:07:01;98383.56;;;10.41;100.00
17635;BME280;8936;49.010;12.120;2023-02-19T12:09:41;98364.31;;;10.39;100.00
17635;BME280;8936;49.010;12.120;2023-02-19T12:12:15;98385.41;;;10.41;100.00
17635;BME280;8936;49.010;12.120;2023-02-19T12:17:35;98390.72;;;10.62;100.00
17635;BME280;8936;49.010;12.120;2023-02-19T12:20:09;98388.34;;;10.39;100.00
17635;BME280;8936;49.010;12.120;2023-02-19T12:22:39;98375.06;;;10.44;100.00
17635;BME280;8936;49.010;12.120;2023-02-19T12:25:28;98381.91;;;10.62;100.00
17635;BME280;8936;49.010;12.120;2023-02-19T12:28:03;98381.41;;;10.65;100.00
17635;BME280;8936;49.010;12.120;2023-02-19T12:30:42;98387.19;;;10.83;100.00
17635;BME280;8936;49.010;12.120;2023-02-19T12:36:12;98391.97;;;10.76;100.00
17635;BME280;8936;49.010;12.120;2023-02-19T12:38:43;98403.88;;;10.96;100.00
17635;BME280;8936;49.010;12.120;2023-02-19T12:41:15;98411.88;;;10.91;100.00
17635;BME280;8936;49.010;12.120;2023-02-19T12:43:45;98398.25;;;10.92;100.00
17635;BME280;8936;49.010;12.120;2023-02-19T12:46:13;98386.00;;;10.96;100.00
17635;BME280;8936;49.010;12.120;2023-02-19T12:48:43;98396.53;;;10.81;100.00
17635;BME280;8936;49.010;12.120;2023-02-19T12:51:14;98393.59;;;11.09;100.00
17635;BME280;8936;49.010;12.120;2023-02-19T12:53:43;98399.53;;;11.16;100.00
17635;BME280;8936;49.010;12.120;2023-02-19T12:56:13;98397.88;;;11.10;100.00
17635;BME280;8936;49.010;12.120;2023-02-19T12:58:42;98410.19;;;11.11;100.00
17635;BME280;8936;49.010;12.120;2023-02-19T13:01:09;98427.00;;;11.07;100.00
17635;BME280;8936;49.010;12.120;2023-02-19T13:03:39;98407.03;;;10.88;100.00
17635;BME280;8936;49.010;12.120;2023-02-19T13:06:17;98405.59;;;10.80;100.00
17635;BME280;8936;49.010;12.120;2023-02-19T13:08:47;98408.44;;;10.68;100.00
17635;BME280;8936;49.010;12.120;2023-02-19T13:11:17;98415.44;;;10.74;100.00